Time;durP1;ratioP1;P1;durP2;ratioP2;P2;SDS_P1;SDS_P2;PMS_P1;PMS_P2;Temp;Humidity;BMP_temperature;BMP_pressure;BME280_temperature;BME280_humidity;BME280_pressure;Samples;Min_cycle;Max_cycle;Signal;HPM_P1;HPM_P2
2024/02/16 00:00:18;;;;;;;17.00;11.70;;;;;;;;;;103646;1296;545534;-73
2024/02/16 00:03:52;;;;;;;21.90;12.90;;;;;;;;;;104086;1286;545642;-73
2024/02/16 00:07:30;;;;;;;20.00;12.90;;;;;;;;;;103647;1291;545057;-73
2024/02/16 00:11:07;;;;;;;20.30;14.10;;;;;;;;;;103801;1292;545478;-73
2024/02/16 00:14:46;;;;;;;19.50;13.50;;;;;;;;;;103760;1294;544964;-73
2024/02/16 00:18:22;;;;;;;18.40;13.20;;;;;;;;;;103984;1289;545024;-73
2024/02/16 00:22:00;;;;;;;18.50;12.80;;;;;;;;;;103830;1288;545543;-73
2024/02/16 00:25:39;;;;;;;19.70;12.80;;;;;;;;;;103766;1292;545085;-73
2024/02/16 00:29:15;;;;;;;18.50;12.60;;;;;;;;;;103667;1291;545503;-73
2024/02/16 00:32:52;;;;;;;20.40;14.00;;;;;;;;;;103650;1292;545120;-73
2024/02/16 00:36:30;;;;;;;21.40;14.00;;;;;;;;;;103510;1291;545270;-73
2024/02/16 00:40:08;;;;;;;20.80;13.10;;;;;;;;;;103831;1292;544849;-73
2024/02/16 00:43:44;;;;;;;18.10;12.70;;;;;;;;;;103796;1288;545336;-73
2024/02/16 00:47:23;;;;;;;18.00;11.80;;;;;;;;;;103652;1289;545140;-72
2024/02/16 00:51:00;;;;;;;16.20;11.20;;;;;;;;;;103576;1295;544972;-71
2024/02/16 00:54:37;;;;;;;14.10;9.90;;;;;;;;;;103768;1289;544745;-72
2024/02/16 00:58:15;;;;;;;13.80;9.50;;;;;;;;;;103674;1291;545768;-73
2024/02/16 01:01:52;;;;;;;13.20;9.50;;;;;;;;;;103784;1292;544914;-72
2024/02/16 01:05:30;;;;;;;12.80;8.90;;;;;;;;;;103643;1293;545640;-73
2024/02/16 01:09:07;;;;;;;13.80;9.60;;;;;;;;;;103898;1289;544951;-73
2024/02/16 01:12:45;;;;;;;13.20;9.00;;;;;;;;;;103744;1291;544723;-73
2024/02/16 01:16:24;;;;;;;12.00;7.80;;;;;;;;;;103646;1292;545571;-72
2024/02/16 01:20:00;;;;;;;11.90;7.80;;;;;;;;;;103639;1291;545411;-72
2024/02/16 01:23:37;;;;;;;11.00;7.40;;;;;;;;;;103961;1289;545009;-73
2024/02/16 01:27:16;;;;;;;10.50;6.70;;;;;;;;;;103614;1291;545762;-73
2024/02/16 01:30:52;;;;;;;10.80;6.60;;;;;;;;;;103745;1295;545916;-72
2024/02/16 01:34:32;;;;;;;10.60;6.50;;;;;;;;;;103724;1289;545437;-72
2024/02/16 01:38:07;;;;;;;10.40;6.70;;;;;;;;;;103746;1292;544898;-73
2024/02/16 01:41:45;;;;;;;11.10;6.80;;;;;;;;;;103723;1292;544908;-73
2024/02/16 01:45:22;;;;;;;10.00;6.40;;;;;;;;;;103812;1289;546418;-72
2024/02/16 01:49:00;;;;;;;10.70;5.80;;;;;;;;;;103637;1291;545360;-73
2024/02/16 01:52:38;;;;;;;11.00;6.60;;;;;;;;;;103755;1290;545474;-72
2024/02/16 01:56:15;;;;;;;13.20;7.00;;;;;;;;;;103768;1295;545758;-73
2024/02/16 01:59:52;;;;;;;13.20;7.30;;;;;;;;;;103864;1288;545633;-71
2024/02/16 02:03:30;;;;;;;13.00;6.90;;;;;;;;;;103710;1292;544800;-73
2024/02/16 02:07:11;;;;;;;13.90;7.50;;;;;;;;;;103843;1292;544819;-73
2024/02/16 02:10:44;;;;;;;11.20;6.30;;;;;;;;;;103708;1295;544872;-72
2024/02/16 02:14:22;;;;;;;11.00;6.40;;;;;;;;;;103860;1289;545142;-72
2024/02/16 02:17:59;;;;;;;10.70;6.00;;;;;;;;;;103667;1291;544896;-73
2024/02/16 02:21:36;;;;;;;10.60;6.20;;;;;;;;;;103913;1289;544900;-72
2024/02/16 02:25:14;;;;;;;9.30;5.90;;;;;;;;;;103805;1289;544977;-73
2024/02/16 02:28:51;;;;;;;11.40;6.90;;;;;;;;;;103756;1296;545177;-73
2024/02/16 02:32:29;;;;;;;12.90;6.90;;;;;;;;;;103596;1290;545980;-72
2024/02/16 02:36:06;;;;;;;11.00;6.10;;;;;;;;;;103889;1289;544958;-72
2024/02/16 02:39:44;;;;;;;11.90;6.80;;;;;;;;;;103703;1289;544773;-73
2024/02/16 02:43:22;;;;;;;11.70;6.60;;;;;;;;;;103796;1289;544752;-73
2024/02/16 02:46:58;;;;;;;11.60;7.20;;;;;;;;;;103679;1291;546250;-72
2024/02/16 02:50:36;;;;;;;11.50;6.90;;;;;;;;;;103752;1295;544987;-73
2024/02/16 02:54:14;;;;;;;11.60;6.70;;;;;;;;;;103506;1291;544919;-73
2024/02/16 02:57:50;;;;;;;11.50;7.10;;;;;;;;;;103710;1291;544981;-73
2024/02/16 03:01:29;;;;;;;11.50;7.00;;;;;;;;;;103772;1295;544862;-73
2024/02/16 03:05:09;;;;;;;11.30;7.10;;;;;;;;;;103572;1292;545274;-73
2024/02/16 03:08:44;;;;;;;11.70;8.30;;;;;;;;;;103628;1291;545151;-72
2024/02/16 03:12:22;;;;;;;12.40;8.30;;;;;;;;;;103793;1289;545563;-73
2024/02/16 03:15:59;;;;;;;12.40;8.40;;;;;;;;;;103702;1291;545310;-73
2024/02/16 03:19:36;;;;;;;12.50;8.20;;;;;;;;;;103545;1291;545091;-73
2024/02/16 03:23:14;;;;;;;13.70;8.50;;;;;;;;;;103718;1289;545481;-73
2024/02/16 03:26:50;;;;;;;14.00;8.50;;;;;;;;;;103948;1288;545895;-73
2024/02/16 03:30:28;;;;;;;12.90;8.70;;;;;;;;;;103705;1291;544972;-72
2024/02/16 03:34:06;;;;;;;14.20;8.80;;;;;;;;;;103748;1292;545023;-72
2024/02/16 03:37:44;;;;;;;12.90;8.50;;;;;;;;;;103729;1296;545408;-73
2024/02/16 03:41:23;;;;;;;14.60;9.30;;;;;;;;;;103790;1292;545154;-72
2024/02/16 03:44:58;;;;;;;12.90;8.70;;;;;;;;;;103778;1289;544856;-73
2024/02/16 03:48:35;;;;;;;14.40;9.60;;;;;;;;;;103944;1288;545670;-73
2024/02/16 03:52:09;;;;;;;17.00;10.60;;;;;;;;;;103871;1289;544777;-70
2024/02/16 03:55:50;;;;;;;14.20;9.70;;;;;;;;;;103827;1292;545350;-72
2024/02/16 03:59:28;;;;;;;14.00;9.70;;;;;;;;;;103635;1290;544866;-73
2024/02/16 04:03:05;;;;;;;13.80;9.50;;;;;;;;;;103948;1290;544939;-73
2024/02/16 04:06:43;;;;;;;13.30;9.20;;;;;;;;;;103650;1291;544800;-73
2024/02/16 04:10:20;;;;;;;14.30;9.10;;;;;;;;;;103858;1293;545577;-73
2024/02/16 04:13:58;;;;;;;13.50;9.00;;;;;;;;;;103714;1289;545032;-72
2024/02/16 04:17:34;;;;;;;16.00;9.90;;;;;;;;;;103814;1289;545034;-72
2024/02/16 04:21:12;;;;;;;19.10;10.80;;;;;;;;;;103832;1292;545936;-72
2024/02/16 04:24:50;;;;;;;16.40;10.20;;;;;;;;;;106024;1287;544987;-73
2024/02/16 04:28:27;;;;;;;18.40;10.70;;;;;;;;;;103474;1291;545457;-71
2024/02/16 04:32:05;;;;;;;18.90;11.20;;;;;;;;;;103863;1290;544796;-72
2024/02/16 04:35:46;;;;;;;21.10;11.90;;;;;;;;;;103639;1291;545236;-73
2024/02/16 04:39:20;;;;;;;16.90;10.40;;;;;;;;;;103926;1289;544970;-73
2024/02/16 04:42:57;;;;;;;15.10;9.30;;;;;;;;;;103694;1292;545005;-73
2024/02/16 04:46:35;;;;;;;14.80;9.80;;;;;;;;;;103796;1289;544757;-73
2024/02/16 04:50:13;;;;;;;14.00;9.80;;;;;;;;;;103620;1295;545334;-72
2024/02/16 04:53:46;;;;;;;14.50;10.10;;;;;;;;;;103623;1288;546237;-71
2024/02/16 04:57:27;;;;;;;14.20;9.80;;;;;;;;;;103546;1291;545592;-73
2024/02/16 05:01:06;;;;;;;13.60;9.40;;;;;;;;;;103847;1295;544990;-73
2024/02/16 05:04:42;;;;;;;15.30;9.60;;;;;;;;;;103871;1285;544958;-72
2024/02/16 05:08:21;;;;;;;13.40;9.30;;;;;;;;;;103761;1289;545933;-73
2024/02/16 05:11:57;;;;;;;13.70;9.00;;;;;;;;;;103518;1294;545651;-73
2024/02/16 05:15:34;;;;;;;14.70;9.90;;;;;;;;;;103796;1288;544995;-72
2024/02/16 05:19:12;;;;;;;15.60;9.70;;;;;;;;;;103629;1291;544670;-73
2024/02/16 05:22:49;;;;;;;16.60;10.90;;;;;;;;;;103828;1289;544909;-73
2024/02/16 05:26:27;;;;;;;17.70;11.00;;;;;;;;;;103697;1291;545010;-73
2024/02/16 05:30:07;;;;;;;18.10;11.20;;;;;;;;;;104438;1282;544951;-73
2024/02/16 05:33:42;;;;;;;17.60;12.70;;;;;;;;;;104031;1289;545681;-73
2024/02/16 05:37:20;;;;;;;18.10;12.30;;;;;;;;;;104217;1289;545081;-73
2024/02/16 05:40:56;;;;;;;17.60;11.40;;;;;;;;;;104329;1288;546016;-73
2024/02/16 05:44:34;;;;;;;16.20;11.30;;;;;;;;;;103796;1289;544732;-73
2024/02/16 05:48:12;;;;;;;17.60;11.70;;;;;;;;;;103719;1289;544983;-73
2024/02/16 05:52:17;;;;;;;19.30;12.30;;;;;;;;;;104017;1289;545665;-73
2024/02/16 05:55:27;;;;;;;18.70;12.10;;;;;;;;;;104551;1282;544594;-73
2024/02/16 05:59:05;;;;;;;21.50;12.80;;;;;;;;;;103803;1289;544964;-73
2024/02/16 06:02:42;;;;;;;18.30;11.50;;;;;;;;;;103703;1292;544834;-73
2024/02/16 06:06:19;;;;;;;18.80;11.10;;;;;;;;;;103889;1291;545568;-73
2024/02/16 06:09:57;;;;;;;17.40;11.40;;;;;;;;;;103775;1294;544750;-73
2024/02/16 06:13:33;;;;;;;19.40;12.10;;;;;;;;;;103899;1289;544853;-73
2024/02/16 06:17:14;;;;;;;20.40;12.80;;;;;;;;;;104163;1288;545045;-73
2024/02/16 06:20:49;;;;;;;24.60;14.50;;;;;;;;;;103821;1292;546076;-73
2024/02/16 06:24:27;;;;;;;21.60;14.50;;;;;;;;;;103664;1292;545191;-73
2024/02/16 06:28:04;;;;;;;22.10;12.40;;;;;;;;;;104163;1285;544718;-72
2024/02/16 06:31:42;;;;;;;21.10;12.70;;;;;;;;;;103831;1289;544773;-73
2024/02/16 06:35:19;;;;;;;18.50;11.80;;;;;;;;;;103763;1289;544788;-72
2024/02/16 06:38:57;;;;;;;19.10;10.90;;;;;;;;;;103780;1291;545436;-73
2024/02/16 06:42:40;;;;;;;19.10;10.60;;;;;;;;;;103558;1292;547851;-73
2024/02/16 06:46:12;;;;;;;16.30;9.60;;;;;;;;;;103791;1289;545651;-72
2024/02/16 06:49:49;;;;;;;16.00;9.20;;;;;;;;;;103693;1289;545417;-72
2024/02/16 06:53:27;;;;;;;17.30;9.00;;;;;;;;;;103769;1289;545206;-73
2024/02/16 06:57:05;;;;;;;16.40;8.80;;;;;;;;;;103667;1290;544903;-73
2024/02/16 07:00:42;;;;;;;13.50;8.10;;;;;;;;;;103874;1292;545241;-73
2024/02/16 07:04:19;;;;;;;15.40;8.30;;;;;;;;;;103605;1292;544768;-73
2024/02/16 07:07:56;;;;;;;13.40;8.40;;;;;;;;;;103767;1291;545889;-72
2024/02/16 07:11:34;;;;;;;13.60;8.40;;;;;;;;;;103609;1295;544803;-73
2024/02/16 07:15:12;;;;;;;21.90;13.50;;;;;;;;;;103719;1292;544806;-73
2024/02/16 07:18:49;;;;;;;15.50;9.50;;;;;;;;;;103733;1291;545349;-73
2024/02/16 07:22:22;;;;;;;15.80;8.00;;;;;;;;;;103892;1292;544801;-71
2024/02/16 07:26:04;;;;;;;12.90;7.30;;;;;;;;;;103731;1289;545862;-73
2024/02/16 07:29:41;;;;;;;11.80;7.10;;;;;;;;;;103880;1290;545333;-72
2024/02/16 07:33:19;;;;;;;12.20;6.80;;;;;;;;;;104190;1289;544981;-72
2024/02/16 07:36:57;;;;;;;11.10;6.60;;;;;;;;;;103734;1290;544929;-73
2024/02/16 07:40:34;;;;;;;12.20;7.30;;;;;;;;;;103698;1289;544964;-73
2024/02/16 07:44:11;;;;;;;16.10;7.60;;;;;;;;;;103829;1290;545367;-71
2024/02/16 07:47:48;;;;;;;11.50;6.80;;;;;;;;;;104063;1286;544823;-73
2024/02/16 07:51:25;;;;;;;12.70;6.60;;;;;;;;;;103805;1289;544936;-73
2024/02/16 07:55:04;;;;;;;13.50;7.40;;;;;;;;;;104133;1286;544885;-73
2024/02/16 07:58:42;;;;;;;13.20;7.20;;;;;;;;;;103796;1289;545429;-73
2024/02/16 08:02:19;;;;;;;14.40;8.30;;;;;;;;;;104174;1289;545324;-72
2024/02/16 08:05:55;;;;;;;18.80;11.00;;;;;;;;;;103823;1290;544778;-74
2024/02/16 08:09:33;;;;;;;17.40;9.80;;;;;;;;;;103672;1295;544927;-72
2024/02/16 08:13:10;;;;;;;18.60;8.70;;;;;;;;;;103816;1290;544970;-72
2024/02/16 08:16:48;;;;;;;15.90;8.90;;;;;;;;;;103789;1292;545253;-72
2024/02/16 08:20:25;;;;;;;14.70;8.70;;;;;;;;;;103793;1289;545211;-72
2024/02/16 08:24:03;;;;;;;13.20;7.80;;;;;;;;;;103712;1291;544844;-74
2024/02/16 08:27:40;;;;;;;13.70;7.60;;;;;;;;;;103754;1291;545618;-73
2024/02/16 08:31:18;;;;;;;25.10;9.30;;;;;;;;;;103637;1289;545090;-73
2024/02/16 08:34:55;;;;;;;15.50;8.40;;;;;;;;;;103653;1292;545784;-73
2024/02/16 08:38:32;;;;;;;14.80;8.30;;;;;;;;;;103560;1294;545007;-72
2024/02/16 08:42:11;;;;;;;15.10;8.00;;;;;;;;;;103877;1289;545519;-73
2024/02/16 08:45:47;;;;;;;22.00;8.20;;;;;;;;;;103665;1290;545798;-72
2024/02/16 08:49:26;;;;;;;13.50;7.70;;;;;;;;;;103582;1289;545669;-72
2024/02/16 08:53:02;;;;;;;12.60;7.70;;;;;;;;;;103731;1291;545110;-71
2024/02/16 08:56:39;;;;;;;14.30;7.30;;;;;;;;;;103838;1289;545665;-73
2024/02/16 09:00:17;;;;;;;13.40;7.10;;;;;;;;;;103793;1292;545850;-73
2024/02/16 09:03:55;;;;;;;14.00;8.00;;;;;;;;;;103868;1290;545385;-73
2024/02/16 09:07:32;;;;;;;13.30;7.80;;;;;;;;;;103759;1291;544897;-71
2024/02/16 09:11:09;;;;;;;15.20;7.90;;;;;;;;;;103712;1289;544833;-73
2024/02/16 09:14:43;;;;;;;12.00;7.10;;;;;;;;;;104112;1286;544797;-73
2024/02/16 09:18:25;;;;;;;18.70;11.80;;;;;;;;;;103782;1295;545164;-73
2024/02/16 09:22:02;;;;;;;12.70;7.50;;;;;;;;;;104151;1286;545941;-72
2024/02/16 09:25:40;;;;;;;13.00;7.70;;;;;;;;;;103749;1289;545243;-73
2024/02/16 09:29:17;;;;;;;12.60;7.30;;;;;;;;;;103826;1301;544870;-73
2024/02/16 09:32:54;;;;;;;11.70;6.90;;;;;;;;;;104153;1285;545338;-74
2024/02/16 09:36:32;;;;;;;14.20;7.40;;;;;;;;;;103793;1289;545190;-73
2024/02/16 09:40:12;;;;;;;14.90;7.60;;;;;;;;;;103780;1292;544999;-73
2024/02/16 09:43:47;;;;;;;15.10;7.80;;;;;;;;;;103742;1291;545264;-74
2024/02/16 09:47:24;;;;;;;11.70;7.00;;;;;;;;;;103776;1291;545021;-72
2024/02/16 09:51:01;;;;;;;14.60;7.70;;;;;;;;;;103705;1291;545027;-72
2024/02/16 09:54:39;;;;;;;17.20;8.20;;;;;;;;;;103864;1289;545036;-73
2024/02/16 09:58:18;;;;;;;17.50;7.30;;;;;;;;;;103929;1288;546226;-73
2024/02/16 10:02:03;;;;;;;13.20;7.20;;;;;;;;;;103889;1290;544754;-73
2024/02/16 10:05:31;;;;;;;13.50;7.60;;;;;;;;;;103692;1292;545383;-73
2024/02/16 10:09:11;;;;;;;15.40;8.10;;;;;;;;;;103773;1289;545458;-72
2024/02/16 10:12:46;;;;;;;14.80;7.40;;;;;;;;;;103779;1292;544913;-74
2024/02/16 10:16:24;;;;;;;15.00;8.00;;;;;;;;;;103816;1289;544995;-72
2024/02/16 10:20:06;;;;;;;16.10;7.50;;;;;;;;;;103648;1295;545072;-73
2024/02/16 10:23:38;;;;;;;15.00;8.10;;;;;;;;;;103778;1296;544998;-72
2024/02/16 10:27:17;;;;;;;14.20;7.40;;;;;;;;;;103746;1290;545043;-74
2024/02/16 10:31:05;;;;;;;12.80;6.70;;;;;;;;;;103941;1292;545900;-74
2024/02/16 10:34:32;;;;;;;12.30;7.10;;;;;;;;;;103828;1289;545057;-74
2024/02/16 10:38:11;;;;;;;12.50;7.20;;;;;;;;;;103838;1289;544936;-74
2024/02/16 10:41:46;;;;;;;11.80;6.40;;;;;;;;;;104092;1292;545340;-74
2024/02/16 10:45:23;;;;;;;12.00;6.60;;;;;;;;;;103750;1289;544796;-74
2024/02/16 10:49:05;;;;;;;11.60;6.50;;;;;;;;;;103660;1291;545004;-74
2024/02/16 10:52:39;;;;;;;11.90;6.80;;;;;;;;;;103701;1294;546003;-73
2024/02/16 10:56:16;;;;;;;12.90;6.80;;;;;;;;;;103631;1291;546071;-73
2024/02/16 10:59:52;;;;;;;11.90;6.30;;;;;;;;;;103788;1288;544992;-71
2024/02/16 11:03:31;;;;;;;24.10;6.80;;;;;;;;;;103670;1292;546109;-73
2024/02/16 11:07:14;;;;;;;11.00;6.60;;;;;;;;;;103897;1290;545861;-73
2024/02/16 11:10:56;;;;;;;14.90;6.80;;;;;;;;;;103646;1291;545887;-74
2024/02/16 11:14:25;;;;;;;12.00;7.30;;;;;;;;;;103853;1292;545557;-74
2024/02/16 11:18:01;;;;;;;11.50;6.50;;;;;;;;;;103677;1291;545859;-74
2024/02/16 11:21:34;;;;;;;10.50;5.80;;;;;;;;;;103743;1291;544963;-72
2024/02/16 11:25:16;;;;;;;15.40;8.70;;;;;;;;;;103764;1289;545826;-71
2024/02/16 11:28:53;;;;;;;17.30;8.10;;;;;;;;;;103868;1289;545585;-71
2024/02/16 11:32:34;;;;;;;34.40;18.50;;;;;;;;;;103753;1290;544991;-74
2024/02/16 11:36:09;;;;;;;19.90;10.50;;;;;;;;;;103918;1289;545379;-74
2024/02/16 11:39:46;;;;;;;11.50;5.70;;;;;;;;;;103672;1292;546484;-74
2024/02/16 11:43:21;;;;;;;10.00;5.30;;;;;;;;;;103938;1293;544739;-71
2024/02/16 11:47:02;;;;;;;12.50;6.20;;;;;;;;;;103731;1289;545064;-74
2024/02/16 11:50:38;;;;;;;10.90;5.50;;;;;;;;;;103766;1292;544872;-74
2024/02/16 11:54:15;;;;;;;10.40;5.30;;;;;;;;;;103976;1289;545233;-74
2024/02/16 11:57:54;;;;;;;11.10;6.10;;;;;;;;;;103842;1289;544769;-72
2024/02/16 12:01:30;;;;;;;10.80;5.70;;;;;;;;;;103786;1290;545254;-72
2024/02/16 12:05:13;;;;;;;11.10;5.50;;;;;;;;;;103781;1298;545411;-72
2024/02/16 12:08:45;;;;;;;9.50;5.40;;;;;;;;;;103739;1290;544750;-72
2024/02/16 12:12:24;;;;;;;12.00;6.60;;;;;;;;;;103859;1291;545562;-75
2024/02/16 12:16:01;;;;;;;10.80;5.40;;;;;;;;;;103783;1293;544952;-74
2024/02/16 12:19:43;;;;;;;9.40;5.10;;;;;;;;;;104085;1289;545901;-74
2024/02/16 12:23:15;;;;;;;17.80;6.10;;;;;;;;;;103606;1291;544906;-74
2024/02/16 12:26:49;;;;;;;27.40;14.60;;;;;;;;;;103845;1302;544917;-72
2024/02/16 12:30:26;;;;;;;11.20;6.50;;;;;;;;;;103870;1289;545049;-72
2024/02/16 12:34:08;;;;;;;11.60;6.40;;;;;;;;;;103833;1289;544801;-73
2024/02/16 12:37:45;;;;;;;11.70;6.20;;;;;;;;;;103654;1292;544783;-74
2024/02/16 12:41:22;;;;;;;9.90;5.40;;;;;;;;;;103857;1289;545581;-74
2024/02/16 12:45:00;;;;;;;11.00;6.30;;;;;;;;;;103757;1291;544901;-73
2024/02/16 12:48:37;;;;;;;11.90;6.20;;;;;;;;;;104110;1288;545747;-74
2024/02/16 12:52:19;;;;;;;11.00;6.10;;;;;;;;;;103816;1288;544739;-73
2024/02/16 12:55:52;;;;;;;12.30;6.20;;;;;;;;;;103960;1289;545451;-75
2024/02/16 12:59:29;;;;;;;11.30;6.30;;;;;;;;;;103746;1290;544822;-74
2024/02/16 13:03:08;;;;;;;12.20;5.40;;;;;;;;;;103849;1289;544789;-74
2024/02/16 13:06:45;;;;;;;9.60;5.40;;;;;;;;;;103726;1295;545165;-73
2024/02/16 13:10:22;;;;;;;9.60;5.50;;;;;;;;;;103900;1289;544982;-74
2024/02/16 13:13:59;;;;;;;11.50;5.50;;;;;;;;;;103804;1290;544972;-73
2024/02/16 13:17:37;;;;;;;10.00;5.40;;;;;;;;;;103840;1289;545936;-73
2024/02/16 13:21:15;;;;;;;14.50;6.10;;;;;;;;;;104007;1292;545052;-73
2024/02/16 13:24:52;;;;;;;10.90;5.40;;;;;;;;;;103736;1289;544981;-73
2024/02/16 13:28:29;;;;;;;15.10;6.00;;;;;;;;;;103766;1289;545581;-73
2024/02/16 13:32:07;;;;;;;15.90;6.40;;;;;;;;;;103785;1292;545197;-73
2024/02/16 13:35:44;;;;;;;11.60;5.80;;;;;;;;;;103626;1291;545330;-73
2024/02/16 13:39:22;;;;;;;16.10;5.90;;;;;;;;;;103762;1289;545396;-73
2024/02/16 13:43:02;;;;;;;11.50;5.80;;;;;;;;;;103676;1290;544900;-74
2024/02/16 13:46:36;;;;;;;12.90;5.90;;;;;;;;;;103499;1295;545070;-72
2024/02/16 13:50:14;;;;;;;20.00;6.30;;;;;;;;;;103720;1291;545674;-72
2024/02/16 13:53:52;;;;;;;11.40;6.50;;;;;;;;;;103756;1290;545445;-74
2024/02/16 13:57:29;;;;;;;14.70;6.30;;;;;;;;;;103668;1291;545409;-73
2024/02/16 14:01:07;;;;;;;14.20;6.60;;;;;;;;;;103829;1289;545358;-73
2024/02/16 14:04:45;;;;;;;13.70;8.10;;;;;;;;;;103886;1289;545202;-73
2024/02/16 14:08:27;;;;;;;12.30;6.80;;;;;;;;;;103584;1292;547948;-73
2024/02/16 14:11:59;;;;;;;12.70;7.70;;;;;;;;;;103676;1290;544737;-73
2024/02/16 14:15:36;;;;;;;16.70;5.90;;;;;;;;;;103823;1289;544856;-73
2024/02/16 14:19:14;;;;;;;10.00;5.30;;;;;;;;;;104367;1288;544861;-73
2024/02/16 14:22:51;;;;;;;19.40;4.60;;;;;;;;;;103654;1303;544931;-73
2024/02/16 14:26:28;;;;;;;23.60;5.10;;;;;;;;;;103724;1295;545381;-73
2024/02/16 14:30:07;;;;;;;12.10;4.70;;;;;;;;;;103761;1290;544816;-72
2024/02/16 14:33:43;;;;;;;11.00;4.90;;;;;;;;;;103742;1295;545863;-72
2024/02/16 14:37:17;;;;;;;9.70;4.90;;;;;;;;;;103842;1292;544778;-70
2024/02/16 14:41:03;;;;;;;12.10;5.30;;;;;;;;;;103615;1291;545814;-73
2024/02/16 14:44:36;;;;;;;9.90;4.60;;;;;;;;;;103699;1295;545222;-72
2024/02/16 14:48:13;;;;;;;10.80;5.60;;;;;;;;;;103693;1290;544785;-74
2024/02/16 14:51:52;;;;;;;12.80;5.50;;;;;;;;;;103710;1289;544830;-73
2024/02/16 14:55:29;;;;;;;10.80;5.60;;;;;;;;;;103719;1291;545315;-73
2024/02/16 14:59:02;;;;;;;12.50;5.70;;;;;;;;;;104172;1292;545330;-71
2024/02/16 15:02:43;;;;;;;14.40;5.90;;;;;;;;;;103753;1291;545836;-73
2024/02/16 15:06:21;;;;;;;11.30;6.50;;;;;;;;;;103746;1292;544945;-73
2024/02/16 15:09:59;;;;;;;13.30;7.00;;;;;;;;;;103688;1291;545052;-73
2024/02/16 15:13:37;;;;;;;11.70;6.40;;;;;;;;;;103667;1292;544937;-73
2024/02/16 15:17:14;;;;;;;13.30;6.60;;;;;;;;;;103722;1303;544918;-72
2024/02/16 15:20:47;;;;;;;19.10;9.80;;;;;;;;;;103812;1289;545676;-71
2024/02/16 15:24:28;;;;;;;16.40;8.50;;;;;;;;;;103724;1292;544747;-73
2024/02/16 15:28:06;;;;;;;11.20;5.70;;;;;;;;;;103921;1289;545016;-72
2024/02/16 15:31:43;;;;;;;12.80;6.10;;;;;;;;;;103655;1291;545058;-73
2024/02/16 15:35:20;;;;;;;10.60;5.50;;;;;;;;;;103783;1292;544811;-72
2024/02/16 15:38:59;;;;;;;11.50;6.40;;;;;;;;;;103895;1289;544838;-73
2024/02/16 15:42:39;;;;;;;12.50;6.10;;;;;;;;;;104564;1281;544880;-73
2024/02/16 15:46:12;;;;;;;11.50;6.50;;;;;;;;;;103735;1291;545002;-73
2024/02/16 15:49:50;;;;;;;13.20;7.40;;;;;;;;;;103857;1292;545352;-73
2024/02/16 15:53:31;;;;;;;11.60;6.80;;;;;;;;;;103930;1291;544991;-73
2024/02/16 15:57:05;;;;;;;16.40;9.20;;;;;;;;;;103791;1289;544933;-73
2024/02/16 16:00:43;;;;;;;15.90;10.00;;;;;;;;;;103775;1291;545580;-73
2024/02/16 16:04:20;;;;;;;15.40;8.70;;;;;;;;;;103812;1289;544969;-72
2024/02/16 16:07:57;;;;;;;15.10;7.50;;;;;;;;;;103646;1292;545427;-73
2024/02/16 16:11:35;;;;;;;13.60;8.00;;;;;;;;;;103775;1289;545973;-73
2024/02/16 16:15:14;;;;;;;13.50;7.30;;;;;;;;;;103821;1292;545291;-73
2024/02/16 16:18:50;;;;;;;15.20;7.80;;;;;;;;;;103788;1289;544745;-72
2024/02/16 16:22:28;;;;;;;14.00;7.00;;;;;;;;;;103806;1294;545303;-73
2024/02/16 16:26:05;;;;;;;13.40;7.30;;;;;;;;;;103773;1292;545446;-73
2024/02/16 16:29:43;;;;;;;16.50;7.90;;;;;;;;;;103879;1292;544922;-73
2024/02/16 16:33:19;;;;;;;11.80;7.00;;;;;;;;;;103809;1289;545508;-73
2024/02/16 16:36:57;;;;;;;13.40;7.90;;;;;;;;;;103827;1291;545383;-73
2024/02/16 16:40:37;;;;;;;13.50;7.40;;;;;;;;;;104575;1289;545796;-74
2024/02/16 16:44:12;;;;;;;12.30;7.80;;;;;;;;;;103969;1291;544872;-72
2024/02/16 16:47:50;;;;;;;16.90;8.50;;;;;;;;;;103788;1289;545408;-73
2024/02/16 16:51:27;;;;;;;13.80;6.80;;;;;;;;;;103781;1289;545646;-73
2024/02/16 16:55:05;;;;;;;13.60;8.00;;;;;;;;;;103832;1290;545632;-71
2024/02/16 16:58:44;;;;;;;15.10;7.40;;;;;;;;;;103806;1289;544978;-72
2024/02/16 17:02:20;;;;;;;16.00;7.70;;;;;;;;;;103709;1291;545451;-73
2024/02/16 17:05:57;;;;;;;16.30;8.30;;;;;;;;;;103720;1291;545151;-73
2024/02/16 17:09:34;;;;;;;16.30;9.10;;;;;;;;;;103754;1289;545051;-72
2024/02/16 17:13:12;;;;;;;17.00;9.20;;;;;;;;;;103620;1291;545467;-73
2024/02/16 17:16:50;;;;;;;18.40;9.00;;;;;;;;;;103737;1293;544934;-73
2024/02/16 17:20:27;;;;;;;15.00;8.30;;;;;;;;;;103715;1290;545428;-72
2024/02/16 17:24:05;;;;;;;16.10;8.20;;;;;;;;;;103934;1289;544724;-72
2024/02/16 17:27:42;;;;;;;13.50;7.30;;;;;;;;;;103652;1291;544949;-73
2024/02/16 17:31:16;;;;;;;12.40;7.50;;;;;;;;;;103691;1288;546310;-71
2024/02/16 17:34:57;;;;;;;11.80;6.40;;;;;;;;;;103689;1291;544961;-74
2024/02/16 17:38:35;;;;;;;10.80;6.10;;;;;;;;;;103540;1288;544804;-73
2024/02/16 17:42:12;;;;;;;11.80;5.90;;;;;;;;;;103671;1291;544985;-72
2024/02/16 17:45:49;;;;;;;12.50;6.40;;;;;;;;;;103863;1295;545649;-72
2024/02/16 17:49:27;;;;;;;12.80;5.90;;;;;;;;;;103542;1289;545352;-72
2024/02/16 17:53:05;;;;;;;10.80;5.80;;;;;;;;;;103657;1292;545188;-72
2024/02/16 17:56:41;;;;;;;11.30;5.40;;;;;;;;;;103638;1303;545244;-73
2024/02/16 18:00:19;;;;;;;10.30;5.30;;;;;;;;;;103708;1292;544852;-73
2024/02/16 18:03:57;;;;;;;10.60;6.00;;;;;;;;;;103625;1291;545435;-71
2024/02/16 18:07:34;;;;;;;10.80;6.20;;;;;;;;;;103731;1292;545615;-72
2024/02/16 18:11:11;;;;;;;10.40;5.10;;;;;;;;;;103722;1289;545302;-72
2024/02/16 18:14:49;;;;;;;11.60;5.80;;;;;;;;;;103635;1291;545044;-72
2024/02/16 18:18:23;;;;;;;10.30;5.40;;;;;;;;;;103663;1300;545288;-72
2024/02/16 18:22:00;;;;;;;10.90;5.60;;;;;;;;;;103807;1290;544968;-72
2024/02/16 18:25:42;;;;;;;10.70;5.40;;;;;;;;;;103703;1292;545378;-72
2024/02/16 18:29:19;;;;;;;12.00;5.90;;;;;;;;;;103802;1292;544998;-73
2024/02/16 18:32:56;;;;;;;11.80;6.20;;;;;;;;;;103853;1289;545006;-72
2024/02/16 18:36:33;;;;;;;16.30;6.20;;;;;;;;;;103743;1291;545796;-71
2024/02/16 18:40:11;;;;;;;11.20;6.10;;;;;;;;;;103864;1300;545458;-73
2024/02/16 18:43:49;;;;;;;11.50;5.80;;;;;;;;;;104001;1292;545576;-73
2024/02/16 18:47:26;;;;;;;11.80;5.90;;;;;;;;;;103702;1289;546479;-72
2024/02/16 18:51:03;;;;;;;13.70;5.80;;;;;;;;;;103762;1289;545342;-71
2024/02/16 18:54:41;;;;;;;11.40;5.50;;;;;;;;;;103921;1288;544772;-72
2024/02/16 18:58:19;;;;;;;12.20;5.50;;;;;;;;;;103879;1289;544826;-71
2024/02/16 19:02:01;;;;;;;11.20;5.50;;;;;;;;;;103753;1290;544773;-72
2024/02/16 19:05:33;;;;;;;10.20;5.60;;;;;;;;;;103853;1292;544962;-73
2024/02/16 19:09:11;;;;;;;13.20;6.20;;;;;;;;;;103711;1292;544840;-73
2024/02/16 19:12:48;;;;;;;10.00;5.80;;;;;;;;;;103705;1289;545009;-73
2024/02/16 19:16:22;;;;;;;12.70;6.50;;;;;;;;;;103622;1289;544866;-71
2024/02/16 19:20:04;;;;;;;13.60;7.30;;;;;;;;;;103870;1302;544792;-73
2024/02/16 19:23:40;;;;;;;13.50;7.20;;;;;;;;;;103858;1288;545719;-71
2024/02/16 19:27:20;;;;;;;12.60;6.40;;;;;;;;;;103803;1289;544973;-72
2024/02/16 19:30:56;;;;;;;13.00;6.00;;;;;;;;;;103724;1296;544981;-73
2024/02/16 19:34:30;;;;;;;11.20;5.80;;;;;;;;;;103862;1292;545065;-71
2024/02/16 19:38:12;;;;;;;14.70;6.70;;;;;;;;;;103704;1291;545634;-73
2024/02/16 19:41:50;;;;;;;13.10;6.90;;;;;;;;;;103799;1290;545498;-72
2024/02/16 19:45:26;;;;;;;13.70;7.00;;;;;;;;;;103711;1291;545213;-73
2024/02/16 19:49:03;;;;;;;11.40;6.80;;;;;;;;;;103800;1292;545102;-72
2024/02/16 19:52:40;;;;;;;14.10;6.40;;;;;;;;;;104037;1288;545123;-72
2024/02/16 19:56:19;;;;;;;15.50;7.30;;;;;;;;;;103778;1290;544851;-73
2024/02/16 19:59:56;;;;;;;12.40;6.50;;;;;;;;;;103659;1297;545005;-72
2024/02/16 20:03:34;;;;;;;13.30;7.00;;;;;;;;;;103847;1293;544957;-72
2024/02/16 20:07:10;;;;;;;11.20;6.00;;;;;;;;;;103632;1291;545493;-72
2024/02/16 20:10:48;;;;;;;10.60;6.00;;;;;;;;;;103764;1292;545681;-72
2024/02/16 20:14:25;;;;;;;13.90;6.70;;;;;;;;;;103666;1296;544865;-73
2024/02/16 20:18:01;;;;;;;10.90;6.10;;;;;;;;;;103577;1289;545392;-69
2024/02/16 20:21:39;;;;;;;11.30;6.80;;;;;;;;;;103602;1289;545556;-71
2024/02/16 20:25:21;;;;;;;13.10;6.20;;;;;;;;;;103667;1291;544998;-73
2024/02/16 20:28:55;;;;;;;12.80;6.10;;;;;;;;;;103753;1291;545453;-72
2024/02/16 20:32:33;;;;;;;11.90;6.60;;;;;;;;;;103748;1289;544879;-73
2024/02/16 20:36:10;;;;;;;13.00;6.80;;;;;;;;;;103705;1292;544867;-72
2024/02/16 20:39:48;;;;;;;12.00;6.50;;;;;;;;;;103976;1292;545027;-72
2024/02/16 20:43:25;;;;;;;11.70;6.40;;;;;;;;;;103812;1290;545089;-72